sensor_id;sensor_type;location;lat;lon;timestamp;P1;durP1;ratioP1;P2;durP2;ratioP2
72388;SDS011;60566;48.062;9.930;2023-09-07T00:00:02;11.57;;;5.90;;
72388;SDS011;60566;48.062;9.930;2023-09-07T00:02:27;10.80;;;5.97;;
72388;SDS011;60566;48.062;9.930;2023-09-07T00:04:54;8.90;;;5.57;;
72388;SDS011;60566;48.062;9.930;2023-09-07T00:07:19;10.15;;;5.45;;
72388;SDS011;60566;48.062;9.930;2023-09-07T00:09:45;12.63;;;6.20;;
72388;SDS011;60566;48.062;9.930;2023-09-07T00:12:10;11.95;;;6.63;;
72388;SDS011;60566;48.062;9.930;2023-09-07T00:14:35;11.43;;;6.25;;
72388;SDS011;60566;48.062;9.930;2023-09-07T00:17:01;11.65;;;6.93;;
72388;SDS011;60566;48.062;9.930;2023-09-07T00:19:26;14.40;;;6.45;;
72388;SDS011;60566;48.062;9.930;2023-09-07T00:21:53;12.73;;;6.70;;
72388;SDS011;60566;48.062;9.930;2023-09-07T00:24:18;12.70;;;6.97;;
72388;SDS011;60566;48.062;9.930;2023-09-07T00:26:44;11.25;;;6.68;;
72388;SDS011;60566;48.062;9.930;2023-09-07T00:29:10;11.68;;;6.85;;
72388;SDS011;60566;48.062;9.930;2023-09-07T00:31:35;14.90;;;7.57;;
72388;SDS011;60566;48.062;9.930;2023-09-07T00:34:01;12.32;;;6.53;;
72388;SDS011;60566;48.062;9.930;2023-09-07T00:36:26;12.77;;;7.95;;
72388;SDS011;60566;48.062;9.930;2023-09-07T00:38:53;11.30;;;6.75;;
72388;SDS011;60566;48.062;9.930;2023-09-07T00:41:18;13.27;;;7.10;;
72388;SDS011;60566;48.062;9.930;2023-09-07T00:43:44;11.90;;;6.65;;
72388;SDS011;60566;48.062;9.930;2023-09-07T00:46:09;14.05;;;7.57;;
72388;SDS011;60566;48.062;9.930;2023-09-07T00:48:34;12.68;;;7.32;;
72388;SDS011;60566;48.062;9.930;2023-09-07T00:51:00;13.02;;;7.10;;
72388;SDS011;60566;48.062;9.930;2023-09-07T00:53:26;12.80;;;7.28;;
72388;SDS011;60566;48.062;9.930;2023-09-07T00:55:53;10.55;;;6.22;;
72388;SDS011;60566;48.062;9.930;2023-09-07T00:58:19;15.73;;;6.45;;
72388;SDS011;60566;48.062;9.930;2023-09-07T01:00:45;11.82;;;6.43;;
72388;SDS011;60566;48.062;9.930;2023-09-07T01:03:11;12.25;;;6.68;;
72388;SDS011;60566;48.062;9.930;2023-09-07T01:05:39;13.00;;;7.40;;
72388;SDS011;60566;48.062;9.930;2023-09-07T01:08:10;11.70;;;7.32;;
72388;SDS011;60566;48.062;9.930;2023-09-07T01:10:37;12.52;;;6.40;;
72388;SDS011;60566;48.062;9.930;2023-09-07T01:13:04;11.98;;;7.00;;
72388;SDS011;60566;48.062;9.930;2023-09-07T01:15:29;17.02;;;7.40;;
72388;SDS011;60566;48.062;9.930;2023-09-07T01:17:55;14.07;;;7.57;;
72388;SDS011;60566;48.062;9.930;2023-09-07T01:20:20;13.65;;;8.00;;
72388;SDS011;60566;48.062;9.930;2023-09-07T01:22:49;12.60;;;6.97;;
72388;SDS011;60566;48.062;9.930;2023-09-07T01:25:15;15.60;;;7.43;;
72388;SDS011;60566;48.062;9.930;2023-09-07T01:30:43;13.20;;;7.47;;
72388;SDS011;60566;48.062;9.930;2023-09-07T01:33:10;15.35;;;7.57;;
72388;SDS011;60566;48.062;9.930;2023-09-07T01:35:35;17.83;;;7.55;;
72388;SDS011;60566;48.062;9.930;2023-09-07T01:38:03;11.82;;;7.15;;
72388;SDS011;60566;48.062;9.930;2023-09-07T01:40:28;15.13;;;8.65;;
72388;SDS011;60566;48.062;9.930;2023-09-07T01:42:54;12.52;;;7.43;;
72388;SDS011;60566;48.062;9.930;2023-09-07T01:45:19;15.23;;;7.88;;
72388;SDS011;60566;48.062;9.930;2023-09-07T01:47:44;14.20;;;7.75;;
72388;SDS011;60566;48.062;9.930;2023-09-07T01:50:10;16.15;;;8.32;;
72388;SDS011;60566;48.062;9.930;2023-09-07T01:52:35;13.98;;;6.65;;
72388;SDS011;60566;48.062;9.930;2023-09-07T01:55:02;13.73;;;7.72;;
72388;SDS011;60566;48.062;9.930;2023-09-07T01:57:28;15.25;;;7.40;;
72388;SDS011;60566;48.062;9.930;2023-09-07T01:59:53;14.52;;;7.38;;
72388;SDS011;60566;48.062;9.930;2023-09-07T02:02:19;14.85;;;7.75;;
72388;SDS011;60566;48.062;9.930;2023-09-07T02:04:44;12.00;;;6.82;;
72388;SDS011;60566;48.062;9.930;2023-09-07T02:07:09;14.15;;;6.93;;
72388;SDS011;60566;48.062;9.930;2023-09-07T02:09:35;14.43;;;7.57;;
72388;SDS011;60566;48.062;9.930;2023-09-07T02:12:02;13.52;;;7.72;;
72388;SDS011;60566;48.062;9.930;2023-09-07T02:14:27;15.73;;;7.95;;
72388;SDS011;60566;48.062;9.930;2023-09-07T02:16:53;16.25;;;7.88;;
72388;SDS011;60566;48.062;9.930;2023-09-07T02:19:18;14.93;;;7.10;;
72388;SDS011;60566;48.062;9.930;2023-09-07T02:21:43;13.23;;;7.57;;
72388;SDS011;60566;48.062;9.930;2023-09-07T02:24:09;13.77;;;7.38;;
72388;SDS011;60566;48.062;9.930;2023-09-07T02:26:34;16.75;;;7.18;;
72388;SDS011;60566;48.062;9.930;2023-09-07T02:32:04;13.98;;;7.40;;
72388;SDS011;60566;48.062;9.930;2023-09-07T02:34:30;13.65;;;7.45;;
72388;SDS011;60566;48.062;9.930;2023-09-07T02:36:56;13.60;;;7.00;;
72388;SDS011;60566;48.062;9.930;2023-09-07T02:39:21;14.55;;;7.70;;
72388;SDS011;60566;48.062;9.930;2023-09-07T02:41:46;13.48;;;6.45;;
72388;SDS011;60566;48.062;9.930;2023-09-07T02:44:12;13.32;;;7.00;;
72388;SDS011;60566;48.062;9.930;2023-09-07T02:46:37;11.40;;;6.85;;
72388;SDS011;60566;48.062;9.930;2023-09-07T02:49:04;11.50;;;6.82;;
72388;SDS011;60566;48.062;9.930;2023-09-07T02:51:29;11.20;;;6.45;;
72388;SDS011;60566;48.062;9.930;2023-09-07T02:53:55;12.25;;;6.90;;
72388;SDS011;60566;48.062;9.930;2023-09-07T02:56:21;13.60;;;6.75;;
72388;SDS011;60566;48.062;9.930;2023-09-07T02:58:46;15.38;;;7.22;;
72388;SDS011;60566;48.062;9.930;2023-09-07T03:01:12;11.43;;;6.63;;
72388;SDS011;60566;48.062;9.930;2023-09-07T03:03:37;12.48;;;6.95;;
72388;SDS011;60566;48.062;9.930;2023-09-07T03:06:09;12.73;;;7.43;;
72388;SDS011;60566;48.062;9.930;2023-09-07T03:08:34;15.75;;;7.60;;
72388;SDS011;60566;48.062;9.930;2023-09-07T03:11:02;12.00;;;6.90;;
72388;SDS011;60566;48.062;9.930;2023-09-07T03:13:28;15.88;;;7.13;;
72388;SDS011;60566;48.062;9.930;2023-09-07T03:15:53;12.38;;;7.60;;
72388;SDS011;60566;48.062;9.930;2023-09-07T03:18:18;13.20;;;7.15;;
72388;SDS011;60566;48.062;9.930;2023-09-07T03:20:44;12.30;;;7.35;;
72388;SDS011;60566;48.062;9.930;2023-09-07T03:23:11;12.98;;;7.15;;
72388;SDS011;60566;48.062;9.930;2023-09-07T03:25:36;13.05;;;7.53;;
72388;SDS011;60566;48.062;9.930;2023-09-07T03:28:01;16.58;;;7.03;;
72388;SDS011;60566;48.062;9.930;2023-09-07T03:30:27;13.38;;;7.28;;
72388;SDS011;60566;48.062;9.930;2023-09-07T03:32:52;14.40;;;7.65;;
72388;SDS011;60566;48.062;9.930;2023-09-07T03:35:18;13.65;;;7.22;;
72388;SDS011;60566;48.062;9.930;2023-09-07T03:37:43;11.93;;;7.10;;
72388;SDS011;60566;48.062;9.930;2023-09-07T03:40:10;12.48;;;7.18;;
72388;SDS011;60566;48.062;9.930;2023-09-07T03:42:36;12.95;;;6.82;;
72388;SDS011;60566;48.062;9.930;2023-09-07T03:45:01;13.43;;;7.60;;
72388;SDS011;60566;48.062;9.930;2023-09-07T03:47:27;18.63;;;7.50;;
72388;SDS011;60566;48.062;9.930;2023-09-07T03:49:52;16.50;;;9.05;;
72388;SDS011;60566;48.062;9.930;2023-09-07T03:52:17;15.25;;;7.63;;
72388;SDS011;60566;48.062;9.930;2023-09-07T03:54:43;15.20;;;7.90;;
72388;SDS011;60566;48.062;9.930;2023-09-07T03:57:09;15.45;;;7.53;;
72388;SDS011;60566;48.062;9.930;2023-09-07T03:59:35;14.38;;;7.35;;
72388;SDS011;60566;48.062;9.930;2023-09-07T04:02:01;13.93;;;6.88;;
72388;SDS011;60566;48.062;9.930;2023-09-07T04:04:27;13.82;;;7.80;;
72388;SDS011;60566;48.062;9.930;2023-09-07T04:06:52;17.63;;;7.80;;
72388;SDS011;60566;48.062;9.930;2023-09-07T04:09:18;13.50;;;6.82;;
72388;SDS011;60566;48.062;9.930;2023-09-07T04:11:43;12.85;;;7.35;;
72388;SDS011;60566;48.062;9.930;2023-09-07T04:14:10;15.35;;;7.45;;
72388;SDS011;60566;48.062;9.930;2023-09-07T04:16:35;14.65;;;8.00;;
72388;SDS011;60566;48.062;9.930;2023-09-07T04:19:01;14.30;;;7.35;;
72388;SDS011;60566;48.062;9.930;2023-09-07T04:21:26;14.82;;;8.13;;
72388;SDS011;60566;48.062;9.930;2023-09-07T04:23:51;14.15;;;7.47;;
72388;SDS011;60566;48.062;9.930;2023-09-07T04:26:17;15.32;;;8.10;;
72388;SDS011;60566;48.062;9.930;2023-09-07T04:28:42;13.77;;;7.93;;
72388;SDS011;60566;48.062;9.930;2023-09-07T04:31:09;13.23;;;7.68;;
72388;SDS011;60566;48.062;9.930;2023-09-07T04:33:35;13.48;;;7.95;;
72388;SDS011;60566;48.062;9.930;2023-09-07T04:36:06;14.43;;;8.32;;
72388;SDS011;60566;48.062;9.930;2023-09-07T04:38:32;13.60;;;8.00;;
72388;SDS011;60566;48.062;9.930;2023-09-07T04:41:04;31.52;;;8.75;;
72388;SDS011;60566;48.062;9.930;2023-09-07T04:43:30;22.98;;;7.88;;
72388;SDS011;60566;48.062;9.930;2023-09-07T04:45:56;21.65;;;8.60;;
72388;SDS011;60566;48.062;9.930;2023-09-07T04:48:22;18.15;;;9.18;;
72388;SDS011;60566;48.062;9.930;2023-09-07T04:50:48;15.98;;;7.85;;
72388;SDS011;60566;48.062;9.930;2023-09-07T04:53:13;14.93;;;8.98;;
72388;SDS011;60566;48.062;9.930;2023-09-07T04:55:39;15.07;;;7.35;;
72388;SDS011;60566;48.062;9.930;2023-09-07T04:58:04;13.70;;;7.15;;
72388;SDS011;60566;48.062;9.930;2023-09-07T05:00:30;14.40;;;6.97;;
72388;SDS011;60566;48.062;9.930;2023-09-07T05:02:56;14.15;;;7.75;;
72388;SDS011;60566;48.062;9.930;2023-09-07T05:05:23;14.48;;;8.13;;
72388;SDS011;60566;48.062;9.930;2023-09-07T05:07:48;13.02;;;7.18;;
72388;SDS011;60566;48.062;9.930;2023-09-07T05:10:13;14.38;;;8.05;;
72388;SDS011;60566;48.062;9.930;2023-09-07T05:12:39;13.95;;;8.38;;
72388;SDS011;60566;48.062;9.930;2023-09-07T05:15:05;13.45;;;7.70;;
72388;SDS011;60566;48.062;9.930;2023-09-07T05:17:31;23.23;;;8.45;;
72388;SDS011;60566;48.062;9.930;2023-09-07T05:19:56;20.33;;;8.63;;
72388;SDS011;60566;48.062;9.930;2023-09-07T05:22:23;14.45;;;8.07;;
72388;SDS011;60566;48.062;9.930;2023-09-07T05:24:48;14.50;;;8.70;;
72388;SDS011;60566;48.062;9.930;2023-09-07T05:27:13;18.17;;;9.18;;
72388;SDS011;60566;48.062;9.930;2023-09-07T05:29:39;18.13;;;9.50;;
72388;SDS011;60566;48.062;9.930;2023-09-07T05:32:05;20.83;;;9.65;;
72388;SDS011;60566;48.062;9.930;2023-09-07T05:34:30;17.38;;;8.55;;
72388;SDS011;60566;48.062;9.930;2023-09-07T05:36:56;16.42;;;9.57;;
72388;SDS011;60566;48.062;9.930;2023-09-07T05:39:22;17.08;;;9.52;;
72388;SDS011;60566;48.062;9.930;2023-09-07T05:41:49;15.45;;;8.63;;
72388;SDS011;60566;48.062;9.930;2023-09-07T05:44:14;24.60;;;10.05;;
72388;SDS011;60566;48.062;9.930;2023-09-07T05:46:39;15.27;;;9.07;;
72388;SDS011;60566;48.062;9.930;2023-09-07T05:49:05;15.68;;;8.82;;
72388;SDS011;60566;48.062;9.930;2023-09-07T05:51:30;22.27;;;9.20;;
72388;SDS011;60566;48.062;9.930;2023-09-07T05:53:55;17.83;;;9.00;;
72388;SDS011;60566;48.062;9.930;2023-09-07T05:56:22;17.20;;;9.48;;
72388;SDS011;60566;48.062;9.930;2023-09-07T05:58:48;23.48;;;10.00;;
72388;SDS011;60566;48.062;9.930;2023-09-07T06:01:13;18.98;;;10.32;;
72388;SDS011;60566;48.062;9.930;2023-09-07T06:03:38;20.13;;;9.70;;
72388;SDS011;60566;48.062;9.930;2023-09-07T06:06:04;18.73;;;9.55;;
72388;SDS011;60566;48.062;9.930;2023-09-07T06:08:29;19.17;;;9.73;;
72388;SDS011;60566;48.062;9.930;2023-09-07T06:10:54;15.88;;;9.45;;
72388;SDS011;60566;48.062;9.930;2023-09-07T06:13:21;16.27;;;9.25;;
72388;SDS011;60566;48.062;9.930;2023-09-07T06:15:46;17.45;;;9.60;;
72388;SDS011;60566;48.062;9.930;2023-09-07T06:18:12;28.40;;;10.10;;
72388;SDS011;60566;48.062;9.930;2023-09-07T06:20:37;22.08;;;10.48;;
72388;SDS011;60566;48.062;9.930;2023-09-07T06:23:03;23.00;;;9.40;;
72388;SDS011;60566;48.062;9.930;2023-09-07T06:25:28;18.08;;;9.73;;
72388;SDS011;60566;48.062;9.930;2023-09-07T06:27:54;19.52;;;10.73;;
72388;SDS011;60566;48.062;9.930;2023-09-07T06:30:20;21.98;;;10.82;;
72388;SDS011;60566;48.062;9.930;2023-09-07T06:32:46;20.13;;;10.45;;
72388;SDS011;60566;48.062;9.930;2023-09-07T06:35:11;20.08;;;10.93;;
72388;SDS011;60566;48.062;9.930;2023-09-07T06:37:37;19.02;;;10.60;;
72388;SDS011;60566;48.062;9.930;2023-09-07T06:40:02;18.60;;;11.07;;
72388;SDS011;60566;48.062;9.930;2023-09-07T06:42:28;22.45;;;11.13;;
72388;SDS011;60566;48.062;9.930;2023-09-07T06:44:53;18.60;;;11.48;;
72388;SDS011;60566;48.062;9.930;2023-09-07T06:47:20;19.60;;;11.27;;
72388;SDS011;60566;48.062;9.930;2023-09-07T06:49:45;20.60;;;11.50;;
72388;SDS011;60566;48.062;9.930;2023-09-07T06:52:11;23.02;;;11.52;;
72388;SDS011;60566;48.062;9.930;2023-09-07T06:54:36;20.13;;;12.15;;
72388;SDS011;60566;48.062;9.930;2023-09-07T06:57:02;20.85;;;12.52;;
72388;SDS011;60566;48.062;9.930;2023-09-07T06:59:27;24.65;;;11.90;;
72388;SDS011;60566;48.062;9.930;2023-09-07T07:01:52;21.05;;;11.43;;
72388;SDS011;60566;48.062;9.930;2023-09-07T07:04:19;23.05;;;11.80;;
72388;SDS011;60566;48.062;9.930;2023-09-07T07:06:44;20.48;;;11.05;;
72388;SDS011;60566;48.062;9.930;2023-09-07T07:09:10;19.98;;;11.00;;
72388;SDS011;60566;48.062;9.930;2023-09-07T07:11:35;19.88;;;11.30;;
72388;SDS011;60566;48.062;9.930;2023-09-07T07:14:00;22.13;;;10.75;;
72388;SDS011;60566;48.062;9.930;2023-09-07T07:16:26;19.25;;;11.02;;
72388;SDS011;60566;48.062;9.930;2023-09-07T07:18:51;20.45;;;11.35;;
72388;SDS011;60566;48.062;9.930;2023-09-07T07:21:18;21.90;;;12.77;;
72388;SDS011;60566;48.062;9.930;2023-09-07T07:23:43;23.02;;;11.98;;
72388;SDS011;60566;48.062;9.930;2023-09-07T07:26:09;22.10;;;12.18;;
72388;SDS011;60566;48.062;9.930;2023-09-07T07:28:34;19.63;;;11.95;;
72388;SDS011;60566;48.062;9.930;2023-09-07T07:31:06;22.30;;;12.10;;
72388;SDS011;60566;48.062;9.930;2023-09-07T07:33:32;22.38;;;11.90;;
72388;SDS011;60566;48.062;9.930;2023-09-07T07:35:57;22.83;;;12.68;;
72388;SDS011;60566;48.062;9.930;2023-09-07T07:38:24;24.52;;;12.75;;
72388;SDS011;60566;48.062;9.930;2023-09-07T07:40:49;20.75;;;11.80;;
72388;SDS011;60566;48.062;9.930;2023-09-07T07:43:14;22.90;;;12.38;;
72388;SDS011;60566;48.062;9.930;2023-09-07T07:45:40;21.02;;;11.32;;
72388;SDS011;60566;48.062;9.930;2023-09-07T07:48:05;20.98;;;12.32;;
72388;SDS011;60566;48.062;9.930;2023-09-07T07:50:31;21.20;;;12.18;;
72388;SDS011;60566;48.062;9.930;2023-09-07T07:52:56;24.67;;;12.65;;
72388;SDS011;60566;48.062;9.930;2023-09-07T07:55:23;22.80;;;12.65;;
72388;SDS011;60566;48.062;9.930;2023-09-07T07:57:48;32.63;;;13.63;;
72388;SDS011;60566;48.062;9.930;2023-09-07T08:00:14;40.38;;;13.63;;
72388;SDS011;60566;48.062;9.930;2023-09-07T08:02:39;24.40;;;12.57;;
72388;SDS011;60566;48.062;9.930;2023-09-07T08:05:05;23.27;;;13.52;;
72388;SDS011;60566;48.062;9.930;2023-09-07T08:07:31;21.77;;;13.45;;
72388;SDS011;60566;48.062;9.930;2023-09-07T08:09:56;22.70;;;12.52;;
72388;SDS011;60566;48.062;9.930;2023-09-07T08:12:23;24.02;;;13.13;;
72388;SDS011;60566;48.062;9.930;2023-09-07T08:14:48;25.42;;;14.18;;
72388;SDS011;60566;48.062;9.930;2023-09-07T08:17:14;23.30;;;13.23;;
72388;SDS011;60566;48.062;9.930;2023-09-07T08:19:39;23.15;;;12.70;;
72388;SDS011;60566;48.062;9.930;2023-09-07T08:22:04;25.85;;;13.02;;
72388;SDS011;60566;48.062;9.930;2023-09-07T08:24:30;25.77;;;13.30;;
72388;SDS011;60566;48.062;9.930;2023-09-07T08:26:55;22.55;;;12.40;;
72388;SDS011;60566;48.062;9.930;2023-09-07T08:29:22;25.75;;;12.75;;
72388;SDS011;60566;48.062;9.930;2023-09-07T08:31:47;23.90;;;11.98;;
72388;SDS011;60566;48.062;9.930;2023-09-07T08:34:15;26.98;;;13.30;;
72388;SDS011;60566;48.062;9.930;2023-09-07T08:36:40;24.95;;;14.88;;
72388;SDS011;60566;48.062;9.930;2023-09-07T08:39:06;24.33;;;12.90;;
72388;SDS011;60566;48.062;9.930;2023-09-07T08:41:32;24.85;;;13.02;;
72388;SDS011;60566;48.062;9.930;2023-09-07T08:44:01;25.45;;;13.45;;
72388;SDS011;60566;48.062;9.930;2023-09-07T08:46:28;20.45;;;13.18;;
72388;SDS011;60566;48.062;9.930;2023-09-07T08:48:53;22.98;;;13.23;;
72388;SDS011;60566;48.062;9.930;2023-09-07T08:51:19;24.42;;;13.38;;
72388;SDS011;60566;48.062;9.930;2023-09-07T08:53:44;29.65;;;13.70;;
72388;SDS011;60566;48.062;9.930;2023-09-07T08:56:10;25.67;;;13.68;;
72388;SDS011;60566;48.062;9.930;2023-09-07T08:58:36;20.90;;;12.63;;
72388;SDS011;60566;48.062;9.930;2023-09-07T09:01:01;22.95;;;12.68;;
72388;SDS011;60566;48.062;9.930;2023-09-07T09:03:28;25.35;;;13.80;;
72388;SDS011;60566;48.062;9.930;2023-09-07T09:05:53;23.10;;;12.75;;
72388;SDS011;60566;48.062;9.930;2023-09-07T09:08:20;24.25;;;14.20;;
72388;SDS011;60566;48.062;9.930;2023-09-07T09:10:45;25.33;;;14.05;;
72388;SDS011;60566;48.062;9.930;2023-09-07T09:13:11;24.05;;;12.85;;
72388;SDS011;60566;48.062;9.930;2023-09-07T09:15:36;22.30;;;12.90;;
72388;SDS011;60566;48.062;9.930;2023-09-07T09:18:11;24.65;;;13.52;;
72388;SDS011;60566;48.062;9.930;2023-09-07T09:20:38;23.23;;;13.43;;
72388;SDS011;60566;48.062;9.930;2023-09-07T09:23:04;23.85;;;12.90;;
72388;SDS011;60566;48.062;9.930;2023-09-07T09:25:30;24.70;;;13.48;;
72388;SDS011;60566;48.062;9.930;2023-09-07T09:27:56;22.77;;;13.15;;
72388;SDS011;60566;48.062;9.930;2023-09-07T09:30:21;22.73;;;13.30;;
72388;SDS011;60566;48.062;9.930;2023-09-07T09:32:46;23.67;;;12.68;;
72388;SDS011;60566;48.062;9.930;2023-09-07T09:35:13;23.15;;;13.38;;
72388;SDS011;60566;48.062;9.930;2023-09-07T09:37:46;22.13;;;13.07;;
72388;SDS011;60566;48.062;9.930;2023-09-07T09:40:12;22.88;;;13.32;;
72388;SDS011;60566;48.062;9.930;2023-09-07T09:42:38;30.80;;;13.65;;
72388;SDS011;60566;48.062;9.930;2023-09-07T09:45:04;19.85;;;12.32;;
72388;SDS011;60566;48.062;9.930;2023-09-07T09:47:30;23.35;;;14.27;;
72388;SDS011;60566;48.062;9.930;2023-09-07T09:49:56;22.20;;;12.70;;
72388;SDS011;60566;48.062;9.930;2023-09-07T09:52:22;20.42;;;12.07;;
72388;SDS011;60566;48.062;9.930;2023-09-07T09:54:50;21.85;;;12.43;;
72388;SDS011;60566;48.062;9.930;2023-09-07T09:57:16;21.00;;;12.02;;
72388;SDS011;60566;48.062;9.930;2023-09-07T09:59:41;24.20;;;13.13;;
72388;SDS011;60566;48.062;9.930;2023-09-07T10:02:07;22.70;;;13.18;;
72388;SDS011;60566;48.062;9.930;2023-09-07T10:04:32;22.50;;;13.75;;
72388;SDS011;60566;48.062;9.930;2023-09-07T10:06:58;24.38;;;13.38;;
72388;SDS011;60566;48.062;9.930;2023-09-07T10:09:28;24.70;;;13.10;;
72388;SDS011;60566;48.062;9.930;2023-09-07T10:11:57;22.27;;;12.60;;
72388;SDS011;60566;48.062;9.930;2023-09-07T10:14:22;20.67;;;11.93;;
72388;SDS011;60566;48.062;9.930;2023-09-07T10:16:48;20.75;;;12.90;;
72388;SDS011;60566;48.062;9.930;2023-09-07T10:19:15;23.50;;;13.07;;
72388;SDS011;60566;48.062;9.930;2023-09-07T10:21:41;21.95;;;12.48;;
72388;SDS011;60566;48.062;9.930;2023-09-07T10:24:06;20.60;;;12.50;;
72388;SDS011;60566;48.062;9.930;2023-09-07T10:26:31;20.17;;;11.68;;
72388;SDS011;60566;48.062;9.930;2023-09-07T10:29:00;21.92;;;11.30;;
72388;SDS011;60566;48.062;9.930;2023-09-07T10:31:26;22.92;;;12.77;;
72388;SDS011;60566;48.062;9.930;2023-09-07T10:33:51;18.48;;;11.18;;
72388;SDS011;60566;48.062;9.930;2023-09-07T10:36:20;20.35;;;12.93;;
72388;SDS011;60566;48.062;9.930;2023-09-07T10:38:46;24.23;;;12.90;;
72388;SDS011;60566;48.062;9.930;2023-09-07T10:41:11;21.52;;;12.93;;
72388;SDS011;60566;48.062;9.930;2023-09-07T10:43:37;23.30;;;12.43;;
72388;SDS011;60566;48.062;9.930;2023-09-07T10:46:13;20.90;;;12.48;;
72388;SDS011;60566;48.062;9.930;2023-09-07T10:48:38;21.98;;;13.15;;
72388;SDS011;60566;48.062;9.930;2023-09-07T10:51:04;26.30;;;12.73;;
72388;SDS011;60566;48.062;9.930;2023-09-07T10:53:30;17.90;;;11.02;;
72388;SDS011;60566;48.062;9.930;2023-09-07T10:55:56;18.92;;;12.30;;
72388;SDS011;60566;48.062;9.930;2023-09-07T10:58:24;22.00;;;12.85;;
72388;SDS011;60566;48.062;9.930;2023-09-07T11:00:52;20.92;;;11.95;;
72388;SDS011;60566;48.062;9.930;2023-09-07T11:03:21;19.58;;;12.02;;
72388;SDS011;60566;48.062;9.930;2023-09-07T11:05:47;25.30;;;12.60;;
72388;SDS011;60566;48.062;9.930;2023-09-07T11:08:13;22.40;;;12.90;;
72388;SDS011;60566;48.062;9.930;2023-09-07T11:10:39;19.70;;;11.95;;
72388;SDS011;60566;48.062;9.930;2023-09-07T11:13:05;19.17;;;11.18;;
72388;SDS011;60566;48.062;9.930;2023-09-07T11:15:30;17.73;;;11.50;;
72388;SDS011;60566;48.062;9.930;2023-09-07T11:17:56;20.00;;;11.25;;
72388;SDS011;60566;48.062;9.930;2023-09-07T11:20:24;18.10;;;10.43;;
72388;SDS011;60566;48.062;9.930;2023-09-07T11:22:49;22.85;;;13.10;;
72388;SDS011;60566;48.062;9.930;2023-09-07T11:25:15;14.98;;;10.52;;
72388;SDS011;60566;48.062;9.930;2023-09-07T11:27:40;17.92;;;11.35;;
72388;SDS011;60566;48.062;9.930;2023-09-07T11:30:06;16.63;;;10.68;;
72388;SDS011;60566;48.062;9.930;2023-09-07T11:32:36;18.10;;;10.93;;
72388;SDS011;60566;48.062;9.930;2023-09-07T11:35:01;19.90;;;11.57;;
72388;SDS011;60566;48.062;9.930;2023-09-07T11:37:28;22.50;;;12.40;;
72388;SDS011;60566;48.062;9.930;2023-09-07T11:39:54;17.27;;;11.45;;
72388;SDS011;60566;48.062;9.930;2023-09-07T11:42:19;16.45;;;10.82;;
72388;SDS011;60566;48.062;9.930;2023-09-07T11:44:44;17.00;;;11.13;;
72388;SDS011;60566;48.062;9.930;2023-09-07T11:47:10;21.48;;;10.48;;
72388;SDS011;60566;48.062;9.930;2023-09-07T11:49:35;18.60;;;11.02;;
72388;SDS011;60566;48.062;9.930;2023-09-07T11:52:00;18.85;;;10.90;;
72388;SDS011;60566;48.062;9.930;2023-09-07T11:54:27;17.17;;;10.85;;
72388;SDS011;60566;48.062;9.930;2023-09-07T11:56:53;15.23;;;10.50;;
72388;SDS011;60566;48.062;9.930;2023-09-07T11:59:18;17.40;;;10.25;;
72388;SDS011;60566;48.062;9.930;2023-09-07T12:01:43;17.80;;;10.90;;
72388;SDS011;60566;48.062;9.930;2023-09-07T12:04:09;17.90;;;10.65;;
72388;SDS011;60566;48.062;9.930;2023-09-07T12:06:34;19.10;;;11.13;;
72388;SDS011;60566;48.062;9.930;2023-09-07T12:09:00;19.95;;;10.73;;
72388;SDS011;60566;48.062;9.930;2023-09-07T12:11:27;14.27;;;9.50;;
72388;SDS011;60566;48.062;9.930;2023-09-07T12:13:53;19.25;;;11.00;;
72388;SDS011;60566;48.062;9.930;2023-09-07T12:16:18;16.40;;;9.57;;
72388;SDS011;60566;48.062;9.930;2023-09-07T12:18:43;17.17;;;9.88;;
72388;SDS011;60566;48.062;9.930;2023-09-07T12:21:09;15.85;;;10.25;;
72388;SDS011;60566;48.062;9.930;2023-09-07T12:23:34;18.25;;;10.32;;
72388;SDS011;60566;48.062;9.930;2023-09-07T12:26:00;18.67;;;10.57;;
72388;SDS011;60566;48.062;9.930;2023-09-07T12:28:27;13.77;;;9.73;;
72388;SDS011;60566;48.062;9.930;2023-09-07T12:30:52;17.55;;;10.18;;
72388;SDS011;60566;48.062;9.930;2023-09-07T12:33:18;14.25;;;9.77;;
72388;SDS011;60566;48.062;9.930;2023-09-07T12:35:43;18.40;;;9.88;;
72388;SDS011;60566;48.062;9.930;2023-09-07T12:38:08;14.75;;;9.70;;
72388;SDS011;60566;48.062;9.930;2023-09-07T12:40:34;16.48;;;11.25;;
72388;SDS011;60566;48.062;9.930;2023-09-07T12:42:59;22.80;;;10.13;;
72388;SDS011;60566;48.062;9.930;2023-09-07T12:45:26;14.57;;;9.30;;
72388;SDS011;60566;48.062;9.930;2023-09-07T12:47:51;15.68;;;10.13;;
72388;SDS011;60566;48.062;9.930;2023-09-07T12:50:17;15.25;;;9.73;;
72388;SDS011;60566;48.062;9.930;2023-09-07T12:52:42;13.57;;;9.23;;
72388;SDS011;60566;48.062;9.930;2023-09-07T12:55:08;11.80;;;9.10;;
72388;SDS011;60566;48.062;9.930;2023-09-07T12:57:33;14.65;;;9.27;;
72388;SDS011;60566;48.062;9.930;2023-09-07T12:59:59;18.58;;;9.55;;
72388;SDS011;60566;48.062;9.930;2023-09-07T13:02:25;17.85;;;10.00;;
72388;SDS011;60566;48.062;9.930;2023-09-07T13:04:51;12.90;;;8.75;;
72388;SDS011;60566;48.062;9.930;2023-09-07T13:07:18;13.65;;;8.93;;
72388;SDS011;60566;48.062;9.930;2023-09-07T13:09:43;15.07;;;9.23;;
72388;SDS011;60566;48.062;9.930;2023-09-07T13:12:09;12.85;;;8.85;;
72388;SDS011;60566;48.062;9.930;2023-09-07T13:14:34;14.10;;;9.00;;
72388;SDS011;60566;48.062;9.930;2023-09-07T13:16:59;14.68;;;9.60;;
72388;SDS011;60566;48.062;9.930;2023-09-07T13:19:26;15.48;;;9.40;;
72388;SDS011;60566;48.062;9.930;2023-09-07T13:21:52;14.63;;;8.95;;
72388;SDS011;60566;48.062;9.930;2023-09-07T13:24:17;14.30;;;9.30;;
72388;SDS011;60566;48.062;9.930;2023-09-07T13:26:46;16.77;;;9.65;;
72388;SDS011;60566;48.062;9.930;2023-09-07T13:29:11;16.30;;;9.95;;
72388;SDS011;60566;48.062;9.930;2023-09-07T13:31:36;14.60;;;9.55;;
72388;SDS011;60566;48.062;9.930;2023-09-07T13:34:02;17.98;;;10.23;;
72388;SDS011;60566;48.062;9.930;2023-09-07T13:36:29;15.57;;;9.95;;
72388;SDS011;60566;48.062;9.930;2023-09-07T13:38:54;14.65;;;9.60;;
72388;SDS011;60566;48.062;9.930;2023-09-07T13:41:19;15.38;;;10.00;;
72388;SDS011;60566;48.062;9.930;2023-09-07T13:43:45;15.95;;;10.15;;
72388;SDS011;60566;48.062;9.930;2023-09-07T13:46:10;15.13;;;9.48;;
72388;SDS011;60566;48.062;9.930;2023-09-07T13:48:35;17.95;;;9.88;;
72388;SDS011;60566;48.062;9.930;2023-09-07T13:51:01;16.08;;;9.38;;
72388;SDS011;60566;48.062;9.930;2023-09-07T13:53:28;14.07;;;9.35;;
72388;SDS011;60566;48.062;9.930;2023-09-07T13:55:53;13.52;;;9.73;;
72388;SDS011;60566;48.062;9.930;2023-09-07T13:58:18;19.08;;;10.23;;
72388;SDS011;60566;48.062;9.930;2023-09-07T14:00:44;14.70;;;9.85;;
72388;SDS011;60566;48.062;9.930;2023-09-07T14:03:09;14.20;;;9.55;;
72388;SDS011;60566;48.062;9.930;2023-09-07T14:05:35;12.55;;;8.75;;
72388;SDS011;60566;48.062;9.930;2023-09-07T14:08:00;52.53;;;11.23;;
72388;SDS011;60566;48.062;9.930;2023-09-07T14:10:27;15.07;;;9.68;;
72388;SDS011;60566;48.062;9.930;2023-09-07T14:12:52;15.13;;;9.27;;
72388;SDS011;60566;48.062;9.930;2023-09-07T14:15:17;16.75;;;10.02;;
72388;SDS011;60566;48.062;9.930;2023-09-07T14:17:43;14.27;;;9.30;;
72388;SDS011;60566;48.062;9.930;2023-09-07T14:20:09;15.15;;;10.20;;
72388;SDS011;60566;48.062;9.930;2023-09-07T14:22:35;16.92;;;9.73;;
72388;SDS011;60566;48.062;9.930;2023-09-07T14:25:00;20.65;;;9.48;;